Time;durP1;ratioP1;P1;durP2;ratioP2;P2;SDS_P1;SDS_P2;PMS_P1;PMS_P2;Temp;Humidity;BMP_temperature;BMP_pressure;BME280_temperature;BME280_humidity;BME280_pressure;Samples;Min_cycle;Max_cycle;Signal;HPM_P1;HPM_P2
2022/03/21 00:00:55;;;;;;;67.75;47.95;;;;;;;0.55;77.06;102892.84;4990240;28;20034;-72
2022/03/21 00:03:28;;;;;;;71.85;49.03;;;;;;;0.50;77.29;102893.69;4989652;28;20144;-72
2022/03/21 00:05:55;;;;;;;67.65;49.50;;;;;;;0.49;76.71;102892.84;4991104;28;20093;-72
2022/03/21 00:08:22;;;;;;;68.90;49.13;;;;;;;0.47;77.11;102893.69;4990071;28;20038;-72
2022/03/21 00:10:49;;;;;;;66.15;48.55;;;;;;;0.49;77.37;102897.16;4985909;28;20030;-72
2022/03/21 00:13:16;;;;;;;65.65;48.88;;;;;;;0.44;76.78;102898.88;4990932;28;20022;-71
2022/03/21 00:15:45;;;;;;;68.85;49.40;;;;;;;0.40;76.83;102900.59;4991849;28;20391;-71
2022/03/21 00:18:14;;;;;;;67.70;49.10;;;;;;;0.37;76.73;102899.72;4992030;28;20037;-72
2022/03/21 00:20:43;;;;;;;68.63;49.67;;;;;;;0.31;77.35;102893.66;4990855;28;20518;-71
2022/03/21 00:23:09;;;;;;;67.88;49.17;;;;;;;0.30;77.12;102901.44;4990015;28;20030;-71
2022/03/21 00:25:35;;;;;;;68.35;50.17;;;;;;;0.27;77.37;102902.28;4991136;28;20018;-72
2022/03/21 00:28:01;;;;;;;66.78;49.63;;;;;;;0.24;77.55;102904.88;4984438;28;20065;-72
2022/03/21 00:30:27;;;;;;;65.45;48.40;;;;;;;0.23;77.04;102912.63;4990732;28;20100;-72
2022/03/21 00:32:53;;;;;;;65.60;49.75;;;;;;;0.19;77.61;102909.19;4982080;28;20066;-71
2022/03/21 00:35:20;;;;;;;67.57;48.80;;;;;;;0.15;77.65;102906.59;4969866;28;20491;-72
2022/03/21 00:37:46;;;;;;;66.90;48.75;;;;;;;0.12;77.63;102912.63;4979724;28;20137;-71
2022/03/21 00:40:14;;;;;;;68.30;49.65;;;;;;;0.10;77.82;102913.47;4984943;28;20027;-71
2022/03/21 00:42:40;;;;;;;66.47;49.30;;;;;;;0.06;77.52;102912.59;4984363;28;20037;-71
2022/03/21 00:45:17;;;;;;;64.65;49.20;;;;;;;0.04;77.72;102926.41;4988319;28;20022;-71
2022/03/21 00:47:44;;;;;;;66.30;47.85;;;;;;;0.01;77.81;102914.31;4989854;28;20037;-71
2022/03/21 00:50:13;;;;;;;69.85;49.90;;;;;;;-0.01;78.17;102916.00;4989036;28;20026;-71
2022/03/21 00:52:43;;;;;;;65.82;48.97;;;;;;;-0.05;77.78;102915.13;4989572;28;20049;-72
2022/03/21 00:55:10;;;;;;;68.07;48.40;;;;;;;-0.07;77.41;102921.16;4989601;28;20034;-72
2022/03/21 00:57:37;;;;;;;67.40;48.85;;;;;;;-0.08;77.75;102915.13;4984396;28;20081;-71
2022/03/21 01:00:06;;;;;;;68.88;50.97;;;;;;;-0.08;78.15;102920.31;4989449;28;20450;-71
2022/03/21 01:02:31;;;;;;;67.78;48.90;;;;;;;-0.13;78.09;102918.56;4991260;28;20113;-71
2022/03/21 01:04:57;;;;;;;68.97;48.30;;;;;;;-0.17;77.75;102925.44;4996240;28;20094;-71
2022/03/21 01:07:22;;;;;;;67.90;48.92;;;;;;;-0.18;77.77;102926.31;4996592;28;20390;-72
2022/03/21 01:09:48;;;;;;;66.65;48.67;;;;;;;-0.22;78.26;102928.88;4994594;28;20483;-70
2022/03/21 01:12:14;;;;;;;64.55;47.92;;;;;;;-0.23;78.62;102929.75;4976730;28;20031;-71
2022/03/21 01:14:40;;;;;;;69.25;49.10;;;;;;;-0.25;78.10;102927.16;4985084;28;20391;-71
2022/03/21 01:17:05;;;;;;;69.43;48.85;;;;;;;-0.27;78.14;102922.84;4976935;28;20030;-71
2022/03/21 01:19:31;;;;;;;68.60;49.50;;;;;;;-0.30;78.44;102923.69;4995114;28;20446;-71
2022/03/21 01:21:57;;;;;;;67.97;48.70;;;;;;;-0.30;78.27;102928.84;4996909;28;20054;-71
2022/03/21 01:24:23;;;;;;;68.63;48.95;;;;;;;-0.33;77.95;102924.53;4994897;28;20026;-71
2022/03/21 01:26:48;;;;;;;68.85;48.53;;;;;;;-0.34;77.92;102927.13;4996498;28;20648;-70
2022/03/21 01:29:14;;;;;;;66.38;49.42;;;;;;;-0.36;77.95;102928.84;4996619;28;20022;-71
2022/03/21 01:31:39;;;;;;;68.22;48.85;;;;;;;-0.36;78.56;102927.09;4989432;28;20034;-72
2022/03/21 01:34:04;;;;;;;64.53;48.47;;;;;;;-0.38;78.43;102926.25;4996201;28;20026;-70
2022/03/21 01:36:30;;;;;;;66.50;48.90;;;;;;;-0.40;78.84;102930.53;4993156;28;20039;-71
2022/03/21 01:38:55;;;;;;;67.88;48.38;;;;;;;-0.41;78.49;102927.91;4994811;28;20030;-71
2022/03/21 01:41:20;;;;;;;65.70;47.45;;;;;;;-0.41;78.44;102938.25;4997480;28;20076;-72
2022/03/21 01:44:17;;;;;;;67.50;48.65;;;;;;;-0.37;77.96;102942.63;4995646;28;20023;-72
2022/03/21 01:46:44;;;;;;;67.28;49.45;;;;;;;-0.43;78.67;102942.56;4981368;28;20438;-72
2022/03/21 01:49:11;;;;;;;68.80;48.55;;;;;;;-0.45;78.82;102946.84;4986966;28;20458;-71
2022/03/21 01:51:37;;;;;;;66.82;48.55;;;;;;;-0.47;78.98;102935.66;4995865;28;20438;-71
2022/03/21 01:56:49;;;;;;;70.05;49.50;;;;;;;-0.54;79.21;102936.47;4995554;28;20041;-71
2022/03/21 01:59:15;;;;;;;68.25;48.75;;;;;;;-0.57;79.68;102939.91;4995563;28;20034;-72
2022/03/21 02:01:41;;;;;;;71.70;50.45;;;;;;;-0.58;79.65;102940.75;4989623;28;20034;-72
2022/03/21 02:04:07;;;;;;;72.32;50.92;;;;;;;-0.60;79.65;102939.03;4995593;28;20121;-72
2022/03/21 02:06:33;;;;;;;68.65;50.20;;;;;;;-0.61;79.64;102932.13;4995065;28;20026;-71
2022/03/21 02:09:00;;;;;;;71.78;51.97;;;;;;;-0.61;80.11;102937.31;4995543;28;20037;-71
2022/03/21 02:11:27;;;;;;;73.05;50.70;;;;;;;-0.64;80.10;102939.00;4978773;28;20402;-72
2022/03/21 02:14:00;;;;;;;73.45;51.30;;;;;;;-0.64;80.09;102933.84;4994502;28;20071;-72
2022/03/21 02:16:27;;;;;;;73.10;51.92;;;;;;;-0.67;80.44;102938.13;4993294;28;20113;-72
2022/03/21 02:18:53;;;;;;;73.90;53.10;;;;;;;-0.68;80.15;102937.28;4990396;28;20041;-72
2022/03/21 02:21:39;;;;;;;75.68;52.65;;;;;;;-0.65;80.54;102944.19;4992375;28;20477;-72
2022/03/21 02:24:10;;;;;;;71.95;52.20;;;;;;;-0.66;80.38;102940.72;4993210;28;20386;-71
2022/03/21 02:26:36;;;;;;;69.53;51.30;;;;;;;-0.68;80.27;102939.84;4976271;28;20019;-71
2022/03/21 02:29:05;;;;;;;78.72;54.42;;;;;;;-0.68;80.18;102936.41;4973036;28;20031;-71
2022/03/21 02:31:33;;;;;;;73.85;52.47;;;;;;;-0.70;80.31;102941.56;4973485;28;20030;-71
2022/03/21 02:34:00;;;;;;;72.03;52.25;;;;;;;-0.72;80.45;102945.00;4973341;28;20031;-70
2022/03/21 02:36:26;;;;;;;74.70;52.83;;;;;;;-0.74;80.15;102947.56;4972394;28;20045;-70
2022/03/21 02:38:57;;;;;;;72.70;52.45;;;;;;;-0.75;80.46;102947.56;4991762;28;20026;-71
2022/03/21 02:41:22;;;;;;;72.93;53.17;;;;;;;-0.78;80.23;102945.81;4987874;28;20033;-71
2022/03/21 02:43:56;;;;;;;74.30;52.97;;;;;;;-0.77;80.25;102944.97;4971893;28;20031;-72
2022/03/21 02:46:23;;;;;;;72.68;52.97;;;;;;;-0.77;80.64;102950.13;4982101;28;20108;-71
2022/03/21 02:48:49;;;;;;;74.30;52.58;;;;;;;-0.79;80.22;102940.66;4991089;28;20589;-71
2022/03/21 02:51:18;;;;;;;75.65;53.20;;;;;;;-0.81;80.96;102940.59;4991650;28;20030;-71
2022/03/21 02:53:45;;;;;;;72.72;52.92;;;;;;;-0.80;80.44;102941.47;4991730;28;20046;-71
2022/03/21 02:56:10;;;;;;;73.80;53.05;;;;;;;-0.81;80.84;102943.19;4991063;28;20061;-71
2022/03/21 02:58:36;;;;;;;75.10;53.72;;;;;;;-0.84;80.81;102938.00;4991959;28;20030;-71
2022/03/21 03:01:12;;;;;;;77.43;52.72;;;;;;;-0.85;80.59;102933.69;4987328;28;20554;-70
2022/03/21 03:03:38;;;;;;;73.82;52.72;;;;;;;-0.88;80.56;102931.09;5006684;28;20026;-72
2022/03/21 03:06:04;;;;;;;75.10;53.80;;;;;;;-0.86;80.53;102936.25;4986074;28;20411;-71
2022/03/21 03:08:31;;;;;;;76.20;54.33;;;;;;;-0.87;81.05;102940.56;4971397;28;20041;-70
2022/03/21 03:10:56;;;;;;;71.95;53.30;;;;;;;-0.88;80.52;102938.84;4972194;28;20341;-71
2022/03/21 03:13:22;;;;;;;74.35;54.22;;;;;;;-0.90;80.46;102940.56;4988522;28;20023;-70
2022/03/21 03:15:47;;;;;;;74.20;54.20;;;;;;;-0.92;80.15;102946.56;4991457;28;20038;-71
2022/03/21 03:18:13;;;;;;;75.85;54.50;;;;;;;-0.92;80.71;102944.84;4990585;28;20467;-71
2022/03/21 03:20:47;;;;;;;71.75;53.90;;;;;;;-0.93;80.95;102943.13;4972347;28;20514;-71
2022/03/21 03:23:13;;;;;;;76.40;54.58;;;;;;;-0.93;80.54;102942.25;4991155;28;20034;-71
2022/03/21 03:25:38;;;;;;;76.07;56.20;;;;;;;-0.95;80.93;102947.41;4990772;28;20018;-71
2022/03/21 03:28:04;;;;;;;73.78;54.22;;;;;;;-0.94;80.44;102943.97;4991556;28;20032;-71
2022/03/21 03:30:29;;;;;;;73.88;55.55;;;;;;;-0.95;80.93;102944.81;4990632;28;20030;-71
2022/03/21 03:32:55;;;;;;;74.15;54.05;;;;;;;-0.98;80.92;102945.66;4991117;28;20494;-71
2022/03/21 03:35:20;;;;;;;75.60;55.83;;;;;;;-0.99;81.23;102946.53;4991394;28;20084;-71
2022/03/21 03:37:46;;;;;;;77.93;55.95;;;;;;;-1.00;80.81;102949.09;4989084;28;20050;-71
2022/03/21 03:40:12;;;;;;;80.15;55.67;;;;;;;-1.02;80.64;102951.66;4990616;28;20112;-70
2022/03/21 03:42:37;;;;;;;81.85;57.13;;;;;;;-0.99;80.81;102946.53;4990058;28;20455;-71
2022/03/21 03:45:03;;;;;;;80.72;57.65;;;;;;;-0.98;81.10;102960.31;4989822;28;20022;-71
2022/03/21 03:47:29;;;;;;;84.25;58.80;;;;;;;-0.99;81.21;102958.56;4990824;28;20433;-72
2022/03/21 03:49:54;;;;;;;79.18;58.05;;;;;;;-0.98;81.14;102957.72;4990824;28;20399;-72
2022/03/21 03:52:19;;;;;;;78.65;57.67;;;;;;;-1.02;80.94;102953.38;4988618;28;20422;-72
2022/03/21 03:54:45;;;;;;;82.28;58.35;;;;;;;-1.03;81.15;102959.41;4990603;28;20033;-71
2022/03/21 03:57:11;;;;;;;79.75;57.53;;;;;;;-1.03;81.14;102959.41;4989154;28;20081;-70
2022/03/21 03:59:37;;;;;;;80.82;59.05;;;;;;;-1.04;81.36;102958.53;4989912;28;20479;-71
2022/03/21 04:02:02;;;;;;;78.80;58.63;;;;;;;-1.06;81.41;102964.56;4990465;28;20022;-71
2022/03/21 04:04:28;;;;;;;83.28;59.88;;;;;;;-1.04;81.08;102957.69;4990594;28;20115;-70
2022/03/21 04:06:53;;;;;;;80.97;58.63;;;;;;;-1.06;81.00;102959.38;4989794;28;20109;-71
2022/03/21 04:09:18;;;;;;;81.07;60.30;;;;;;;-1.05;81.63;102958.53;4990542;28;20097;-71
2022/03/21 04:11:44;;;;;;;80.05;58.95;;;;;;;-1.06;81.84;102970.56;4989484;28;20495;-71
2022/03/21 04:14:09;;;;;;;83.22;59.95;;;;;;;-1.06;81.99;102965.41;4974965;28;20195;-71
2022/03/21 04:16:36;;;;;;;79.90;58.65;;;;;;;-1.09;81.38;102959.34;4985904;28;20104;-70
2022/03/21 04:19:02;;;;;;;85.78;59.92;;;;;;;-1.09;81.34;102960.22;4990657;28;20022;-71
2022/03/21 04:21:27;;;;;;;81.00;59.03;;;;;;;-1.14;81.54;102961.03;4986157;28;20610;-71
2022/03/21 04:23:53;;;;;;;81.32;58.97;;;;;;;-1.11;81.53;102963.66;4991259;28;20394;-70
2022/03/21 04:26:19;;;;;;;89.60;63.60;;;;;;;-1.14;82.15;102966.22;4990705;28;20383;-71
2022/03/21 04:28:44;;;;;;;86.47;63.10;;;;;;;-1.14;82.38;102967.06;4990023;28;20022;-71
2022/03/21 04:31:09;;;;;;;87.57;62.58;;;;;;;-1.14;82.50;102963.63;4972054;28;20062;-70
2022/03/21 04:33:35;;;;;;;87.28;63.00;;;;;;;-1.15;82.12;102959.31;4971245;28;20029;-71
2022/03/21 04:36:00;;;;;;;90.78;61.90;;;;;;;-1.16;82.51;102958.44;4970158;28;20106;-71
2022/03/21 04:38:26;;;;;;;84.85;61.15;;;;;;;-1.17;82.18;102961.03;4985211;28;20026;-71
2022/03/21 04:40:51;;;;;;;87.60;61.55;;;;;;;-1.18;82.23;102959.28;4989769;28;20030;-71
2022/03/21 04:43:18;;;;;;;86.60;61.28;;;;;;;-1.19;82.55;102967.88;4988943;28;20391;-71
2022/03/21 04:45:47;;;;;;;86.60;60.45;;;;;;;-1.19;82.42;102967.88;5004355;28;20133;-71
2022/03/21 04:48:13;;;;;;;85.38;61.10;;;;;;;-1.20;82.45;102961.88;5008751;28;20791;-70
2022/03/21 04:50:39;;;;;;;81.50;58.88;;;;;;;-1.22;82.24;102963.53;5009392;28;20386;-71
2022/03/21 04:53:05;;;;;;;82.55;61.75;;;;;;;-1.23;82.27;102968.69;4991752;28;20027;-71
2022/03/21 04:55:32;;;;;;;80.63;60.03;;;;;;;-1.26;82.28;102965.22;4984310;28;20058;-72
2022/03/21 04:57:58;;;;;;;82.18;60.55;;;;;;;-1.26;82.38;102961.78;4989476;28;20038;-72
2022/03/21 05:00:23;;;;;;;82.05;62.00;;;;;;;-1.29;82.57;102962.63;4989406;28;20095;-71
2022/03/21 05:02:49;;;;;;;79.78;60.42;;;;;;;-1.28;82.26;102966.94;4984922;28;20031;-72
2022/03/21 05:05:14;;;;;;;82.65;62.53;;;;;;;-1.27;82.37;102967.78;4999246;28;20044;-71
2022/03/21 05:07:40;;;;;;;82.18;60.47;;;;;;;-1.29;82.53;102972.94;5006705;28;20120;-71
2022/03/21 05:10:06;;;;;;;82.60;61.90;;;;;;;-1.30;82.60;102981.53;5008488;28;20030;-70
2022/03/21 05:12:32;;;;;;;79.20;60.03;;;;;;;-1.30;82.56;102980.69;4999281;28;20034;-71
2022/03/21 05:14:57;;;;;;;79.45;59.60;;;;;;;-1.31;81.97;102984.13;4994998;28;20022;-72
2022/03/21 05:17:22;;;;;;;80.63;58.28;;;;;;;-1.30;82.09;102976.38;5005700;28;20050;-70
2022/03/21 05:19:48;;;;;;;84.13;59.38;;;;;;;-1.29;82.07;102982.41;4989965;28;20073;-71
2022/03/21 05:22:13;;;;;;;76.50;58.05;;;;;;;-1.29;81.62;102985.00;4981378;28;20031;-71
2022/03/21 05:35:55;;;;;;;86.05;62.13;;;;;;;-1.39;82.25;102986.63;4978479;28;20069;-71
2022/03/21 05:38:22;;;;;;;87.03;63.30;;;;;;;-1.37;82.39;102984.94;4987367;28;20077;-71
2022/03/21 05:40:48;;;;;;;83.35;62.75;;;;;;;-1.39;82.76;102981.47;4988154;28;20033;-72
2022/03/21 05:43:13;;;;;;;83.30;61.97;;;;;;;-1.37;83.04;102979.75;4969655;28;20439;-72
2022/03/21 05:45:38;;;;;;;83.38;62.05;;;;;;;-1.37;82.97;102981.47;4989879;28;20037;-70
2022/03/21 05:50:48;;;;;;;89.13;63.28;;;;;;;-1.39;83.40;102981.47;4973651;28;20226;-71
2022/03/21 05:53:14;;;;;;;87.97;64.00;;;;;;;-1.41;83.41;102985.75;4991203;28;20026;-71
2022/03/21 05:55:39;;;;;;;87.18;63.55;;;;;;;-1.41;83.61;102988.31;4992841;28;20057;-71
2022/03/21 05:58:05;;;;;;;82.82;63.03;;;;;;;-1.41;83.36;102990.91;4992808;28;20061;-71
2022/03/21 06:00:30;;;;;;;84.63;62.35;;;;;;;-1.40;83.76;102995.22;4991332;28;20390;-71
2022/03/21 06:02:56;;;;;;;90.10;64.25;;;;;;;-1.39;83.51;102996.94;4991484;28;20030;-72
2022/03/21 06:05:23;;;;;;;89.50;65.32;;;;;;;-1.38;83.96;102998.69;4981219;28;20022;-72
2022/03/21 06:07:50;;;;;;;88.75;63.90;;;;;;;-1.37;83.84;102994.38;4980084;28;20562;-71
2022/03/21 06:10:15;;;;;;;86.72;63.25;;;;;;;-1.35;83.75;103003.00;4972620;28;20514;-72
2022/03/21 06:12:41;;;;;;;84.32;61.72;;;;;;;-1.35;83.98;102996.13;4990746;28;20030;-72
2022/03/21 06:15:07;;;;;;;90.50;63.30;;;;;;;-1.33;83.91;103001.31;4992447;28;20031;-71
2022/03/21 06:17:41;;;;;;;89.45;64.88;;;;;;;-1.31;84.01;103000.47;4993087;28;20038;-71
2022/03/21 06:20:16;;;;;;;86.70;63.45;;;;;;;-1.28;84.24;103005.66;4992326;28;20106;-71
2022/03/21 06:22:42;;;;;;;91.53;65.53;;;;;;;-1.28;84.01;103000.50;4992672;28;20483;-71
2022/03/21 06:25:09;;;;;;;86.65;64.30;;;;;;;-1.25;83.86;103010.00;4980565;28;20038;-73
2022/03/21 06:27:38;;;;;;;83.95;62.13;;;;;;;-1.23;84.21;103013.44;4973064;28;20133;-72
2022/03/21 06:30:08;;;;;;;84.97;62.45;;;;;;;-1.23;84.32;103013.44;4973304;28;20026;-72
2022/03/21 06:32:34;;;;;;;86.57;63.15;;;;;;;-1.21;84.51;103019.50;4973319;28;20039;-72
2022/03/21 06:34:59;;;;;;;90.22;65.18;;;;;;;-1.18;84.82;103021.28;4972476;28;20042;-72
2022/03/21 06:37:25;;;;;;;89.38;65.25;;;;;;;-1.16;84.46;103010.09;4989139;28;20046;-72
2022/03/21 06:39:50;;;;;;;86.15;63.40;;;;;;;-1.12;85.04;103016.16;4991927;28;20022;-72
2022/03/21 06:42:16;;;;;;;89.05;65.03;;;;;;;-1.07;84.38;103019.66;4992003;28;20474;-71
2022/03/21 06:44:42;;;;;;;88.97;64.25;;;;;;;-1.05;84.63;103016.22;4985943;28;20054;-71
2022/03/21 06:47:09;;;;;;;90.05;66.63;;;;;;;-1.01;85.01;103024.88;4972731;28;20058;-71
2022/03/21 06:49:35;;;;;;;95.45;67.68;;;;;;;-0.96;85.17;103025.75;4972194;28;20133;-72
2022/03/21 06:52:02;;;;;;;88.80;64.47;;;;;;;-0.90;85.18;103033.56;4979521;28;20084;-72
2022/03/21 06:54:31;;;;;;;88.45;64.88;;;;;;;-0.87;85.25;103027.56;4992148;28;20037;-73
2022/03/21 06:56:56;;;;;;;90.85;66.85;;;;;;;-0.81;85.93;103030.19;4991274;28;20362;-73
2022/03/21 06:59:22;;;;;;;88.93;66.38;;;;;;;-0.76;85.60;103036.28;4991403;28;20061;-73
2022/03/21 07:01:48;;;;;;;90.65;64.78;;;;;;;-0.69;85.39;103041.50;4988935;28;20088;-73
2022/03/21 07:04:13;;;;;;;92.43;64.82;;;;;;;-0.64;85.47;103045.00;4991589;28;20034;-73
2022/03/21 07:06:38;;;;;;;98.78;66.38;;;;;;;-0.57;85.92;103043.31;4990129;28;20423;-72
2022/03/21 07:09:04;;;;;;;95.05;67.78;;;;;;;-0.50;86.47;103033.88;4990747;28;20108;-72
2022/03/21 07:11:29;;;;;;;97.68;68.35;;;;;;;-0.44;86.40;103039.97;4991676;28;20483;-72
2022/03/21 07:13:55;;;;;;;97.82;69.40;;;;;;;-0.34;87.54;103053.84;4991494;28;20058;-73
2022/03/21 07:16:20;;;;;;;96.38;67.38;;;;;;;-0.25;87.49;103050.44;4974276;28;20038;-72
2022/03/21 07:18:46;;;;;;;94.20;65.32;;;;;;;-0.15;86.99;103052.22;4971862;28;20754;-72
2022/03/21 07:21:13;;;;;;;94.20;65.35;;;;;;;-0.05;86.97;103049.69;4982202;28;20048;-72
2022/03/21 07:23:38;;;;;;;93.82;67.47;;;;;;;0.02;86.95;103058.38;4981337;28;20149;-72
2022/03/21 07:26:04;;;;;;;98.28;69.05;;;;;;;0.14;88.18;103049.78;4981987;28;20379;-72
2022/03/21 07:28:29;;;;;;;102.90;70.47;;;;;;;0.24;87.75;103056.72;4982213;28;20105;-72
2022/03/21 07:30:55;;;;;;;98.18;65.28;;;;;;;0.33;86.64;103046.41;4979839;28;20019;-72
2022/03/21 07:33:20;;;;;;;103.00;71.63;;;;;;;0.47;88.71;103044.75;4982592;28;20114;-72
2022/03/21 07:35:46;;;;;;;97.07;68.80;;;;;;;0.58;88.03;103048.22;4983965;28;20034;-72
2022/03/21 07:38:12;;;;;;;101.25;69.68;;;;;;;0.69;88.61;103042.22;4982565;28;20410;-72
2022/03/21 07:40:37;;;;;;;95.80;67.57;;;;;;;0.83;88.57;103043.13;4982070;28;20022;-72
2022/03/21 07:43:03;;;;;;;102.80;70.20;;;;;;;1.01;89.79;103050.91;4983644;28;20038;-72
2022/03/21 07:48:12;;;;;;;97.50;68.03;;;;;;;1.30;89.32;103050.06;4976761;28;20558;-72
2022/03/21 07:50:38;;;;;;;97.35;67.43;;;;;;;1.51;90.37;103050.06;4971816;28;20027;-72
2022/03/21 07:53:04;;;;;;;98.75;68.57;;;;;;;1.69;90.72;103044.84;4987706;28;20518;-72
2022/03/21 07:55:33;;;;;;;93.90;64.78;;;;;;;1.89;92.01;103045.66;4990167;28;20490;-72
2022/03/21 07:57:59;;;;;;;93.22;64.57;;;;;;;2.12;92.31;103044.75;4971238;28;20031;-72
2022/03/21 08:00:30;;;;;;;96.53;64.15;;;;;;;2.29;91.63;103045.53;4970546;28;20026;-71
2022/03/21 08:02:58;;;;;;;92.57;62.05;;;;;;;2.50;92.13;103048.03;4989387;28;20029;-71
2022/03/21 08:05:24;;;;;;;91.85;60.78;;;;;;;2.73;91.73;103041.84;4990126;28;20022;-71
2022/03/21 08:07:51;;;;;;;87.28;58.78;;;;;;;2.98;91.97;103046.00;4989059;28;20069;-72
2022/03/21 08:10:18;;;;;;;81.90;56.45;;;;;;;3.23;92.30;103046.72;4990402;28;20105;-73
2022/03/21 08:12:46;;;;;;;76.95;51.63;;;;;;;3.58;92.50;103048.97;4989881;28;20030;-71
2022/03/21 08:15:12;;;;;;;70.07;48.35;;;;;;;3.84;91.19;103048.72;4981892;28;20469;-71
2022/03/21 08:17:59;;;;;;;69.25;43.25;;;;;;;3.97;89.99;103046.84;4975108;28;20105;-71
2022/03/21 08:20:33;;;;;;;61.03;41.00;;;;;;;4.24;89.15;103051.75;4989531;28;20430;-72
2022/03/21 08:23:01;;;;;;;57.13;38.95;;;;;;;4.43;88.36;103051.53;4990491;28;20028;-72
2022/03/21 08:25:27;;;;;;;55.95;37.00;;;;;;;4.73;87.25;103049.34;4991149;28;20014;-71
2022/03/21 08:27:54;;;;;;;51.13;32.20;;;;;;;4.97;85.95;103055.97;4988189;28;20033;-72
2022/03/21 08:30:19;;;;;;;48.70;31.58;;;;;;;5.17;84.72;103041.72;4977833;28;20030;-73
2022/03/21 08:32:48;;;;;;;46.75;30.67;;;;;;;5.37;83.94;103049.25;4980372;28;20031;-73
2022/03/21 08:35:19;;;;;;;44.97;28.15;;;;;;;5.61;82.83;103041.88;4979972;28;20121;-72
2022/03/21 08:37:46;;;;;;;39.78;26.67;;;;;;;5.75;81.68;103040.75;4984308;28;20038;-72
2022/03/21 08:40:12;;;;;;;41.83;25.63;;;;;;;5.93;80.15;103036.06;4980428;28;20022;-73
2022/03/21 08:42:37;;;;;;;39.10;23.33;;;;;;;6.15;78.67;103036.50;4976545;28;20085;-72
2022/03/21 08:45:04;;;;;;;38.05;23.25;;;;;;;6.37;77.70;103046.50;4972527;28;20030;-74
2022/03/21 08:47:30;;;;;;;37.67;22.83;;;;;;;6.58;76.94;103038.22;4970827;28;20050;-74
2022/03/21 08:49:55;;;;;;;33.28;22.60;;;;;;;6.68;77.49;103031.00;4979904;28;20026;-74
2022/03/21 08:52:21;;;;;;;37.85;22.15;;;;;;;6.89;74.59;103031.38;4989782;28;20060;-74
2022/03/21 08:54:46;;;;;;;38.55;22.60;;;;;;;7.11;74.32;103036.09;4989129;28;20026;-74
2022/03/21 08:57:11;;;;;;;37.80;22.13;;;;;;;7.31;73.90;103033.00;4988764;28;20483;-74
2022/03/21 08:59:37;;;;;;;35.85;21.92;;;;;;;7.49;73.77;103038.63;4989303;28;20048;-74
2022/03/21 09:02:03;;;;;;;35.92;21.15;;;;;;;7.67;73.52;103028.56;4970140;28;20045;-72
2022/03/21 09:04:29;;;;;;;37.22;20.95;;;;;;;7.84;71.71;103031.59;5008489;28;20066;-72
2022/03/21 09:06:54;;;;;;;31.05;20.40;;;;;;;7.94;70.77;103030.41;5009361;28;20095;-72
2022/03/21 09:09:20;;;;;;;37.42;20.58;;;;;;;8.12;70.63;103029.06;5006325;28;20439;-72
2022/03/21 09:11:46;;;;;;;31.63;20.73;;;;;;;8.28;71.24;103032.09;4976442;28;20037;-72
2022/03/21 09:14:12;;;;;;;32.47;20.42;;;;;;;8.45;69.20;103029.88;4984181;28;20061;-72
2022/03/21 09:16:39;;;;;;;27.33;19.95;;;;;;;8.63;68.47;103031.06;4988695;28;20026;-72
2022/03/21 09:19:04;;;;;;;29.95;20.45;;;;;;;8.75;68.74;103034.16;4989451;28;20069;-71
2022/03/21 09:21:30;;;;;;;34.50;20.80;;;;;;;8.91;70.10;103033.69;4989794;28;20734;-71
2022/03/21 09:23:55;;;;;;;32.95;19.65;;;;;;;9.04;68.47;103027.13;4989094;28;20085;-71
2022/03/21 09:26:21;;;;;;;37.47;21.90;;;;;;;9.21;68.35;103032.72;4985632;28;20382;-73
2022/03/21 09:28:48;;;;;;;32.08;19.60;;;;;;;9.35;66.95;103022.59;4990445;28;20027;-71
2022/03/21 09:31:14;;;;;;;30.15;18.55;;;;;;;9.47;67.56;103017.81;4988663;28;20022;-71
2022/03/21 09:33:41;;;;;;;33.90;19.35;;;;;;;9.67;64.91;103012.75;4987121;28;20026;-72
2022/03/21 09:36:07;;;;;;;32.10;18.67;;;;;;;9.73;65.59;103013.38;4983529;28;20054;-72
2022/03/21 09:38:32;;;;;;;30.35;19.60;;;;;;;9.90;66.08;103010.13;4990300;28;20452;-71
2022/03/21 09:40:58;;;;;;;32.28;19.15;;;;;;;10.02;64.71;103008.84;4992516;28;20079;-71
2022/03/21 09:43:24;;;;;;;25.67;18.20;;;;;;;10.21;64.27;103009.03;4992628;28;20045;-71
2022/03/21 09:45:51;;;;;;;26.10;17.67;;;;;;;10.33;63.50;103003.28;4990001;28;20030;-71
2022/03/21 09:48:19;;;;;;;25.40;17.38;;;;;;;10.52;63.35;103003.47;4980785;28;20023;-71
2022/03/21 09:50:45;;;;;;;26.50;16.80;;;;;;;10.62;60.81;103000.41;4979420;28;20486;-71
2022/03/21 09:53:14;;;;;;;27.95;17.42;;;;;;;10.76;60.53;103002.47;4975999;28;20027;-71
2022/03/21 09:55:42;;;;;;;26.63;17.08;;;;;;;10.90;62.13;102999.28;4993072;28;20026;-72
2022/03/21 09:58:10;;;;;;;30.90;17.80;;;;;;;11.05;61.50;103000.44;4983678;28;20023;-74
2022/03/21 10:00:39;;;;;;;29.00;17.25;;;;;;;11.19;60.42;102996.28;4991201;28;20029;-72
2022/03/21 10:03:05;;;;;;;27.23;17.27;;;;;;;11.35;59.73;103003.56;4989326;28;20109;-71
2022/03/21 10:05:33;;;;;;;23.95;16.05;;;;;;;11.50;59.57;102997.63;4991826;28;20526;-74
2022/03/21 10:08:17;;;;;;;25.85;16.08;;;;;;;11.59;61.11;102999.84;4973855;28;20460;-73
2022/03/21 10:10:58;;;;;;;26.20;16.80;;;;;;;11.74;59.02;102993.06;4973160;28;20034;-74
2022/03/21 10:13:38;;;;;;;36.88;17.52;;;;;;;11.89;58.69;102989.75;4973373;28;20475;-71
2022/03/21 10:16:09;;;;;;;32.10;16.48;;;;;;;11.99;57.80;102977.88;4986154;28;20084;-71
2022/03/21 10:18:36;;;;;;;23.83;16.83;;;;;;;12.15;57.19;102983.31;4991528;28;20034;-71
2022/03/21 10:21:15;;;;;;;23.33;16.27;;;;;;;12.28;57.45;102979.16;4985470;28;20053;-72
2022/03/21 10:23:44;;;;;;;29.23;16.35;;;;;;;12.45;56.40;102981.03;4992633;28;20524;-72
2022/03/21 10:26:55;;;;;;;24.00;16.90;;;;;;;12.60;58.94;102977.63;4991709;28;20018;-72
2022/03/21 10:29:21;;;;;;;28.85;18.50;;;;;;;12.88;55.73;102979.78;4991068;28;20165;-72
2022/03/21 10:31:48;;;;;;;28.02;17.05;;;;;;;13.08;56.37;102979.63;4992162;28;20034;-72
2022/03/21 10:34:16;;;;;;;27.80;16.75;;;;;;;13.21;55.87;102973.75;4991358;28;20113;-72
2022/03/21 10:37:04;;;;;;;33.88;17.55;;;;;;;13.36;55.62;102975.63;4987526;28;20403;-72
2022/03/21 10:39:32;;;;;;;26.55;17.38;;;;;;;13.53;54.53;102980.03;4973535;28;20026;-72
2022/03/21 10:42:02;;;;;;;27.63;17.55;;;;;;;13.79;53.54;102971.59;4982849;28;20022;-72
2022/03/21 10:44:28;;;;;;;29.27;17.75;;;;;;;13.98;53.52;102979.38;4992939;28;20046;-72
2022/03/21 10:46:55;;;;;;;25.55;17.58;;;;;;;14.19;53.43;102983.50;4992053;28;20069;-72
2022/03/21 10:49:35;;;;;;;23.63;17.23;;;;;;;14.35;54.13;102973.78;4992407;28;20061;-72
2022/03/21 10:52:02;;;;;;;24.98;18.13;;;;;;;14.53;51.89;102965.78;4992034;28;20034;-72
2022/03/21 10:54:38;;;;;;;27.60;18.48;;;;;;;14.66;52.35;102966.78;4990838;28;20018;-72
2022/03/21 10:57:05;;;;;;;27.55;18.55;;;;;;;14.79;50.08;102967.78;4992043;28;20390;-72
2022/03/21 10:59:34;;;;;;;26.98;18.05;;;;;;;14.93;49.75;102962.53;4992641;28;20042;-72
2022/03/21 11:02:19;;;;;;;31.33;18.13;;;;;;;15.07;52.49;102958.22;4991232;28;20023;-72
2022/03/21 11:04:45;;;;;;;26.33;18.30;;;;;;;15.20;49.77;102957.38;4990717;28;20034;-72
2022/03/21 11:07:13;;;;;;;29.95;18.50;;;;;;;15.35;49.89;102960.94;4989915;28;20045;-72
2022/03/21 11:09:41;;;;;;;25.92;18.08;;;;;;;15.49;49.19;102949.47;4989821;28;20058;-72
2022/03/21 11:12:08;;;;;;;34.42;18.92;;;;;;;15.53;49.11;102951.84;4990123;28;20101;-73
2022/03/21 11:14:40;;;;;;;26.33;18.23;;;;;;;15.72;49.63;102940.16;4991986;28;20034;-74
2022/03/21 11:17:07;;;;;;;23.00;17.10;;;;;;;15.85;48.89;102941.06;4990559;28;20030;-74
2022/03/21 11:19:34;;;;;;;26.40;18.17;;;;;;;16.08;48.99;102945.81;4991513;28;20080;-74
2022/03/21 11:22:00;;;;;;;26.83;18.42;;;;;;;16.17;48.59;102936.38;4990726;28;20041;-73
2022/03/21 11:24:28;;;;;;;25.77;17.83;;;;;;;16.44;49.01;102944.38;4989123;28;20038;-74
2022/03/21 11:27:17;;;;;;;27.80;18.63;;;;;;;16.51;47.02;102943.03;4991162;28;20054;-72
2022/03/21 11:30:06;;;;;;;23.83;16.70;;;;;;;16.68;47.25;102940.13;4990371;28;20037;-72
2022/03/21 11:32:43;;;;;;;25.63;17.50;;;;;;;16.86;48.32;102930.94;4991692;28;20030;-72